createdAt,value
2022-11-12T00:04:32.904Z,100505.25
2022-11-12T00:10:12.976Z,100493.94
2022-11-12T00:15:53.030Z,100487.03
2022-11-12T00:21:32.987Z,100478.41
2022-11-12T00:27:13.234Z,100468.94
2022-11-12T00:32:53.093Z,100447.34
2022-11-12T00:38:33.574Z,100439.53
2022-11-12T00:44:13.528Z,100426.53
2022-11-12T00:49:53.484Z,100428.31
2022-11-12T00:55:33.611Z,100422.22
2022-11-12T01:01:16.020Z,100433.47
2022-11-12T01:06:55.874Z,100433.47
2022-11-12T01:12:35.801Z,100437.78
2022-11-12T01:18:15.756Z,100430.84
2022-11-12T01:23:58.179Z,100422.19
2022-11-12T01:29:37.823Z,100414.38
2022-11-12T01:35:17.707Z,100436.06
2022-11-12T01:40:57.605Z,100430.84
2022-11-12T01:47:02.547Z,100423.97
2022-11-12T01:52:57.205Z,100427.44
2022-11-12T01:58:39.555Z,100416.22
2022-11-12T02:04:20.881Z,100428.31
2022-11-12T02:10:03.363Z,100430.00
2022-11-12T02:15:43.492Z,100414.38
2022-11-12T02:21:24.907Z,100409.19
2022-11-12T02:27:06.339Z,100407.47
2022-11-12T02:32:46.404Z,100395.38
2022-11-12T02:38:26.890Z,100399.75
2022-11-12T02:44:07.200Z,100400.53
2022-11-12T02:49:46.974Z,100422.19
2022-11-12T02:55:26.946Z,100417.00
2022-11-12T03:01:07.097Z,100417.81
2022-11-12T03:06:47.068Z,100411.78
2022-11-12T03:12:27.078Z,100401.41
2022-11-12T03:18:07.092Z,100398.72
2022-11-12T03:23:47.061Z,100383.19
2022-11-12T03:29:27.142Z,100379.75
2022-11-12T03:35:07.371Z,100373.63
2022-11-12T03:40:47.002Z,100369.28
2022-11-12T03:46:27.090Z,100375.34
2022-11-12T03:52:06.996Z,100370.16
2022-11-12T03:57:51.719Z,100353.59
2022-11-12T04:03:31.736Z,100328.56
2022-11-12T04:09:11.670Z,100319.06
2022-11-12T04:14:51.652Z,100306.06
2022-11-12T04:21:06.355Z,100289.63
2022-11-12T04:26:46.578Z,100297.44
2022-11-12T04:32:26.566Z,100299.13
2022-11-12T04:38:06.310Z,100292.19
2022-11-12T04:44:04.660Z,100283.50
2022-11-12T04:49:44.697Z,100301.75
2022-11-12T04:55:24.909Z,100297.38
2022-11-12T05:01:05.412Z,100312.00
2022-11-12T05:06:54.611Z,100318.03
2022-11-12T05:12:34.633Z,100282.44
2022-11-12T05:18:14.442Z,100291.94
2022-11-12T05:23:54.184Z,100303.16
2022-11-12T05:29:34.164Z,100304.94
2022-11-12T05:35:14.481Z,100270.22
2022-11-12T05:40:54.460Z,100270.19
2022-11-12T05:46:34.482Z,100252.78
2022-11-12T05:52:14.534Z,100253.66
2022-11-12T05:57:54.562Z,100243.13
2022-11-12T06:03:34.534Z,100232.50
2022-11-12T06:09:14.446Z,100212.44
2022-11-12T06:14:54.291Z,100211.56
2022-11-12T06:20:35.251Z,100213.25
2022-11-12T06:26:15.326Z,100196.59
2022-11-12T06:31:55.244Z,100189.59
2022-11-12T06:37:35.167Z,100190.44
2022-11-12T06:43:15.123Z,100192.84
2022-11-12T06:48:54.988Z,100208.56
2022-11-12T06:54:34.941Z,100164.53
2022-11-12T07:00:15.449Z,100149.66
2022-11-12T07:05:55.738Z,100142.03
2022-11-12T07:11:35.907Z,100140.56
2022-11-12T07:17:15.822Z,100133.72
2022-11-12T07:22:55.677Z,100152.13
2022-11-12T07:28:35.615Z,100139.91
2022-11-12T07:34:15.586Z,100146.91
2022-11-12T07:39:55.599Z,100157.47
2022-11-12T07:45:35.429Z,100140.41
2022-11-12T07:51:17.249Z,100131.03
2022-11-12T07:56:57.004Z,100125.06
2022-11-12T08:02:37.172Z,100104.50
2022-11-12T08:08:17.277Z,100109.84
2022-11-12T08:13:57.477Z,100093.13
2022-11-12T08:19:37.334Z,100095.75
2022-11-12T08:25:19.158Z,100086.69
2022-11-12T08:31:07.585Z,100086.00
2022-11-12T08:36:47.632Z,100069.31
2022-11-12T08:42:27.583Z,100058.66
2022-11-12T08:48:14.515Z,100065.56
2022-11-12T08:53:54.562Z,100043.81
2022-11-12T08:59:34.406Z,100068.00
2022-11-12T09:05:14.337Z,100067.66
2022-11-12T09:10:54.455Z,100065.09
2022-11-12T09:16:34.457Z,100035.66
2022-11-12T09:22:14.396Z,100039.25
2022-11-12T09:27:55.241Z,100039.44
2022-11-12T09:33:35.293Z,100011.75
2022-11-12T09:39:15.251Z,100013.63
2022-11-12T09:45:22.596Z,99997.41
2022-11-12T09:51:12.322Z,99984.22
2022-11-12T09:56:53.726Z,99976.63
2022-11-12T10:02:39.788Z,99974.25
2022-11-12T10:08:35.419Z,99979.19
2022-11-12T10:14:55.068Z,99964.28
2022-11-12T10:20:53.488Z,99954.59
2022-11-12T10:26:34.880Z,99953.94
2022-11-12T10:32:16.286Z,99968.13
2022-11-12T10:38:06.694Z,99943.97
2022-11-12T10:43:57.016Z,99921.06
2022-11-12T10:49:36.603Z,99923.53
2022-11-12T10:55:16.619Z,99913.50
2022-11-12T11:01:17.092Z,99924.72
2022-11-12T11:07:03.756Z,99909.06
2022-11-12T11:12:43.959Z,99906.44
2022-11-12T11:18:24.397Z,99909.22
2022-11-12T11:24:30.612Z,99900.28
2022-11-12T11:30:15.585Z,99902.06
2022-11-12T11:36:19.142Z,99885.78
2022-11-12T11:42:17.622Z,99880.13
2022-11-12T11:48:08.044Z,99897.94
2022-11-12T11:54:10.499Z,99859.66
2022-11-12T11:59:59.294Z,99854.00
2022-11-12T12:06:00.314Z,99836.09
2022-11-12T12:11:59.734Z,99829.59
2022-11-12T12:17:51.518Z,99814.09
2022-11-12T12:23:50.900Z,99806.63
2022-11-12T12:29:47.811Z,99797.59
2022-11-12T12:35:44.735Z,99783.84
2022-11-12T12:41:30.158Z,99791.13
2022-11-12T12:47:13.524Z,99769.88
2022-11-12T12:53:02.203Z,99768.13
2022-11-12T12:58:49.181Z,99745.94
2022-11-12T13:04:52.778Z,99742.19
2022-11-12T13:10:41.731Z,99725.00
2022-11-12T13:16:52.243Z,99729.28
2022-11-12T13:22:38.387Z,99715.66
2022-11-12T13:28:18.467Z,99705.06
2022-11-12T13:34:13.911Z,99701.94
2022-11-12T13:39:54.004Z,99674.00
2022-11-12T13:45:41.719Z,99677.19
2022-11-12T13:51:28.887Z,99655.09
2022-11-12T13:57:20.575Z,99658.16
2022-11-12T14:03:04.767Z,99645.91
2022-11-12T14:09:12.399Z,99640.97
2022-11-12T14:14:58.397Z,99632.13
2022-11-12T14:20:42.156Z,99615.63
2022-11-12T14:26:38.310Z,99610.13
2022-11-12T14:32:18.933Z,99611.09
2022-11-12T14:38:23.503Z,99600.03
2022-11-12T14:44:13.270Z,99602.47
2022-11-12T14:49:54.056Z,99602.53
2022-11-12T14:55:37.208Z,99593.03
2022-11-12T15:07:48.361Z,99562.78
2022-11-12T15:13:28.364Z,99554.72
2022-11-12T15:19:16.445Z,99549.50
2022-11-12T15:24:56.900Z,99515.56
2022-11-12T15:30:36.530Z,99531.13
2022-11-12T15:36:19.614Z,99519.88
2022-11-12T15:42:07.360Z,99517.41
2022-11-12T15:47:47.816Z,99517.28
2022-11-12T15:53:28.945Z,99488.63
2022-11-12T15:59:12.408Z,99443.91
2022-11-12T16:04:52.417Z,99488.66
2022-11-12T16:10:32.637Z,99514.56
2022-11-12T16:16:12.735Z,99457.22
2022-11-12T16:21:52.909Z,99474.34
2022-11-12T16:27:33.233Z,99454.56
2022-11-12T16:33:14.367Z,99450.47
2022-11-12T16:38:54.241Z,99430.38
2022-11-12T16:44:33.772Z,99439.09
2022-11-12T16:50:16.977Z,99463.50
2022-11-12T16:55:57.792Z,99480.72
2022-11-12T17:01:37.845Z,99434.66
2022-11-12T17:07:17.917Z,99427.47
2022-11-12T17:12:57.877Z,99403.09
2022-11-12T17:18:38.786Z,99415.97
2022-11-12T17:24:18.698Z,99414.25
2022-11-12T17:29:58.745Z,99406.84
2022-11-12T17:35:38.741Z,99401.72
2022-11-12T17:41:18.126Z,99401.44
2022-11-12T17:46:58.426Z,99379.63
2022-11-12T17:52:38.667Z,99395.06
2022-11-12T17:58:18.569Z,99415.66
2022-11-12T18:03:59.591Z,99407.91
2022-11-12T18:09:39.423Z,99425.03
2022-11-12T18:15:19.662Z,99414.88
2022-11-12T18:20:59.845Z,99440.75
2022-11-12T18:26:39.740Z,99373.56
2022-11-12T18:32:19.707Z,99396.50
2022-11-12T18:38:00.385Z,99422.72
2022-11-12T18:43:40.910Z,99417.72
2022-11-12T18:49:20.790Z,99419.06
2022-11-12T18:55:00.799Z,99416.75
2022-11-12T19:00:40.774Z,99398.66
2022-11-12T19:06:21.099Z,99427.66
2022-11-12T19:12:01.131Z,99409.09
2022-11-12T19:17:40.659Z,99405.59
2022-11-12T19:23:21.680Z,99403.03
2022-11-12T19:29:02.315Z,99362.38
2022-11-12T19:34:42.343Z,99379.63
2022-11-12T19:40:22.328Z,99382.06
2022-11-12T19:46:02.906Z,99362.91
2022-11-12T19:51:43.089Z,99355.84
2022-11-12T19:57:23.475Z,99341.91
2022-11-12T20:03:03.525Z,99320.22
2022-11-12T20:08:43.480Z,99326.09
2022-11-12T20:14:23.491Z,99325.03
2022-11-12T20:20:04.934Z,99330.63
2022-11-12T20:25:44.774Z,99313.44
2022-11-12T20:31:24.637Z,99315.50
2022-11-12T20:37:04.727Z,99312.88
2022-11-12T20:42:46.024Z,99291.78
2022-11-12T20:48:26.482Z,99317.47
2022-11-12T20:54:06.672Z,99295.38
2022-11-12T20:59:48.269Z,99306.63
2022-11-12T21:05:31.269Z,99309.81
2022-11-12T21:11:13.989Z,99299.34
2022-11-12T21:16:53.495Z,99305.25
2022-11-12T21:22:33.981Z,99288.78
2022-11-12T21:28:14.301Z,99288.59
2022-11-12T21:34:00.648Z,99296.28
2022-11-12T21:39:40.643Z,99304.69
2022-11-12T21:45:20.727Z,99304.53
2022-11-12T21:51:05.399Z,99301.72
2022-11-12T21:56:45.463Z,99284.41
2022-11-12T22:02:25.485Z,99298.28
2022-11-12T22:08:05.730Z,99289.00
2022-11-12T22:13:45.939Z,99287.91
2022-11-12T22:19:25.648Z,99270.00
2022-11-12T22:25:05.848Z,99285.63
2022-11-12T22:30:45.830Z,99275.16
2022-11-12T22:36:28.447Z,99286.22
2022-11-12T22:42:08.124Z,99290.38
2022-11-12T22:47:47.925Z,99280.69
2022-11-12T22:53:29.154Z,99242.41
2022-11-12T22:59:11.083Z,99259.84
2022-11-12T23:04:50.940Z,99252.66
2022-11-12T23:10:32.085Z,99268.66
2022-11-12T23:16:15.188Z,99267.25
2022-11-12T23:21:55.064Z,99271.53
2022-11-12T23:27:35.135Z,99271.66
2022-11-12T23:33:15.397Z,99275.09
2022-11-12T23:38:56.238Z,99291.38
2022-11-12T23:44:36.068Z,99277.88
2022-11-12T23:50:16.297Z,99288.91
2022-11-12T23:55:56.293Z,99261.56
